createdAt,value
2022-10-31T00:01:51.294Z,4.38
2022-10-31T00:03:53.497Z,4.88
2022-10-31T00:05:55.040Z,4.68
2022-10-31T00:07:56.990Z,4.15
2022-10-31T00:10:00.482Z,4.70
2022-10-31T00:12:04.957Z,4.53
2022-10-31T00:14:11.075Z,3.83
2022-10-31T00:16:21.223Z,4.50
2022-10-31T00:18:22.882Z,4.40
2022-10-31T00:20:25.616Z,5.32
2022-10-31T00:22:27.141Z,6.07
2022-10-31T00:24:34.111Z,6.25
2022-10-31T00:26:35.772Z,5.13
2022-10-31T00:28:37.342Z,5.40
2022-10-31T00:30:38.877Z,6.57
2022-10-31T00:32:40.723Z,5.70
2022-10-31T00:34:42.513Z,4.82
2022-10-31T00:36:45.038Z,6.45
2022-10-31T00:38:48.928Z,5.85
2022-10-31T00:40:50.545Z,7.18
2022-10-31T00:42:52.593Z,6.15
2022-10-31T00:44:55.520Z,7.43
2022-10-31T00:46:57.171Z,5.80
2022-10-31T00:49:01.559Z,4.90
2022-10-31T00:51:03.562Z,5.00
2022-10-31T00:53:05.251Z,5.80
2022-10-31T00:55:07.225Z,6.03
2022-10-31T00:57:09.016Z,5.35
2022-10-31T00:59:14.861Z,5.53
2022-10-31T01:01:19.472Z,6.03
2022-10-31T01:03:32.662Z,4.78
2022-10-31T01:05:34.284Z,4.60
2022-10-31T01:07:41.387Z,3.97
2022-10-31T01:09:44.482Z,4.55
2022-10-31T01:11:46.436Z,4.10
2022-10-31T01:13:50.416Z,4.65
2022-10-31T01:15:59.286Z,4.60
2022-10-31T01:18:01.263Z,5.00
2022-10-31T01:20:07.191Z,4.45
2022-10-31T01:22:13.112Z,4.15
2022-10-31T01:24:14.809Z,4.10
2022-10-31T01:26:25.474Z,5.07
2022-10-31T01:28:28.957Z,4.88
2022-10-31T01:30:30.787Z,4.40
2022-10-31T01:32:38.372Z,4.53
2022-10-31T01:34:40.128Z,4.35
2022-10-31T01:36:42.482Z,5.18
2022-10-31T01:38:46.050Z,4.32
2022-10-31T01:40:49.911Z,5.03
2022-10-31T01:42:52.185Z,5.40
2022-10-31T01:44:58.889Z,4.68
2022-10-31T01:47:13.369Z,7.43
2022-10-31T01:49:24.706Z,5.03
2022-10-31T01:51:36.552Z,5.50
2022-10-31T01:53:38.692Z,5.00
2022-10-31T01:55:46.324Z,4.53
2022-10-31T01:57:58.947Z,4.93
2022-10-31T02:00:05.098Z,5.55
2022-10-31T02:02:17.981Z,5.10
2022-10-31T02:04:23.040Z,4.68
2022-10-31T02:06:39.293Z,4.75
2022-10-31T02:08:41.696Z,4.55
2022-10-31T02:10:45.054Z,4.80
2022-10-31T02:12:47.747Z,5.30
2022-10-31T02:14:50.242Z,4.68
2022-10-31T02:16:54.243Z,4.40
2022-10-31T02:18:57.390Z,5.28
2022-10-31T02:21:15.746Z,4.25
2022-10-31T02:23:55.991Z,4.10
2022-10-31T02:26:22.163Z,4.57
2022-10-31T02:28:47.011Z,5.18
2022-10-31T02:30:49.706Z,5.38
2022-10-31T02:32:57.538Z,5.13
2022-10-31T02:35:08.093Z,3.70
2022-10-31T02:37:23.931Z,6.05
2022-10-31T02:39:35.115Z,4.28
2022-10-31T02:41:53.588Z,4.10
2022-10-31T02:44:08.205Z,4.38
2022-10-31T02:46:19.585Z,4.30
2022-10-31T02:48:28.280Z,3.63
2022-10-31T02:50:35.840Z,3.67
2022-10-31T02:52:38.252Z,3.92
2022-10-31T02:54:48.009Z,3.40
2022-10-31T02:56:54.300Z,3.78
2022-10-31T02:59:01.389Z,4.88
2022-10-31T03:01:24.615Z,3.65
2022-10-31T03:03:48.091Z,3.67
2022-10-31T03:06:15.463Z,3.85
2022-10-31T03:08:26.515Z,3.97
2022-10-31T03:10:37.639Z,3.65
2022-10-31T03:13:02.677Z,4.03
2022-10-31T03:15:18.785Z,4.25
2022-10-31T03:17:31.721Z,4.72
2022-10-31T03:19:40.030Z,4.20
2022-10-31T03:21:56.712Z,4.50
2022-10-31T03:24:00.181Z,3.78
2022-10-31T03:26:05.526Z,4.22
2022-10-31T03:28:11.044Z,4.15
2022-10-31T03:30:13.052Z,4.30
2022-10-31T03:32:48.309Z,4.20
2022-10-31T03:34:53.119Z,4.05
2022-10-31T03:36:58.130Z,4.45
2022-10-31T03:39:04.204Z,4.20
2022-10-31T03:41:13.773Z,4.05
2022-10-31T03:45:32.216Z,3.60
2022-10-31T03:47:44.030Z,4.00
2022-10-31T03:49:46.079Z,3.67
2022-10-31T03:52:06.238Z,3.80
2022-10-31T03:54:22.152Z,4.35
2022-10-31T03:56:41.489Z,4.35
2022-10-31T03:58:50.959Z,3.90
2022-10-31T04:00:56.064Z,5.20
2022-10-31T04:03:06.941Z,3.72
2022-10-31T04:05:12.097Z,3.90
2022-10-31T04:07:15.884Z,4.82
2022-10-31T04:09:20.470Z,5.07
2022-10-31T04:11:27.127Z,3.60
2022-10-31T04:14:00.871Z,3.50
2022-10-31T04:16:02.942Z,4.22
2022-10-31T04:18:06.225Z,3.97
2022-10-31T04:20:08.458Z,4.30
2022-10-31T04:22:14.010Z,4.13
2022-10-31T04:24:15.835Z,6.32
2022-10-31T04:26:17.681Z,4.95
2022-10-31T04:30:26.498Z,4.90
2022-10-31T04:32:29.421Z,5.68
2022-10-31T04:34:33.715Z,4.88
2022-10-31T04:36:35.454Z,4.85
2022-10-31T04:38:37.059Z,6.72
2022-10-31T04:40:51.337Z,4.75
2022-10-31T04:43:15.212Z,6.25
2022-10-31T04:45:26.024Z,4.93
2022-10-31T04:47:33.252Z,6.25
2022-10-31T04:49:35.854Z,5.15
2022-10-31T04:51:37.553Z,5.75
2022-10-31T04:53:42.321Z,4.47
2022-10-31T04:56:10.200Z,4.95
2022-10-31T04:58:21.725Z,5.43
2022-10-31T05:00:27.370Z,4.80
2022-10-31T05:02:30.723Z,5.15
2022-10-31T05:04:34.043Z,4.88
2022-10-31T05:06:37.948Z,5.60
2022-10-31T05:08:39.846Z,4.93
2022-10-31T05:10:44.024Z,5.30
2022-10-31T05:12:50.389Z,5.63
2022-10-31T05:15:10.652Z,5.05
2022-10-31T05:17:35.523Z,5.72
2022-10-31T05:20:10.606Z,6.78
2022-10-31T05:22:30.823Z,6.32
2022-10-31T05:24:34.235Z,4.95
2022-10-31T05:26:35.864Z,5.57
2022-10-31T05:28:37.598Z,5.88
2022-10-31T05:30:39.190Z,4.57
2022-10-31T05:32:49.403Z,4.95
2022-10-31T05:35:17.645Z,4.50
2022-10-31T05:37:53.793Z,3.85
2022-10-31T05:39:55.594Z,4.00
2022-10-31T05:41:57.486Z,4.22
2022-10-31T05:44:02.010Z,4.03
2022-10-31T05:46:05.736Z,4.20
2022-10-31T05:48:25.860Z,4.35
2022-10-31T05:50:46.134Z,4.68
2022-10-31T05:52:48.064Z,4.22
2022-10-31T05:55:03.114Z,5.35
2022-10-31T05:57:05.188Z,4.15
2022-10-31T05:59:07.578Z,4.10
2022-10-31T06:01:10.352Z,4.32
2022-10-31T06:03:14.601Z,5.22
2022-10-31T06:05:24.635Z,3.92
2022-10-31T06:07:37.116Z,3.95
2022-10-31T06:09:38.993Z,4.00
2022-10-31T06:11:41.984Z,4.53
2022-10-31T06:13:43.891Z,5.05
2022-10-31T06:15:52.342Z,4.80
2022-10-31T06:18:05.668Z,4.70
2022-10-31T06:20:25.598Z,4.35
2022-10-31T06:22:35.683Z,4.72
2022-10-31T06:24:44.572Z,4.47
2022-10-31T06:27:00.530Z,4.47
2022-10-31T06:29:04.174Z,4.63
2022-10-31T06:31:32.175Z,5.38
2022-10-31T06:33:34.948Z,4.47
2022-10-31T06:35:37.555Z,4.10
2022-10-31T06:37:39.358Z,4.22
2022-10-31T06:39:58.338Z,4.32
2022-10-31T06:42:00.172Z,5.13
2022-10-31T06:44:06.418Z,3.92
2022-10-31T06:46:31.105Z,4.00
2022-10-31T06:49:07.368Z,5.65
2022-10-31T06:51:16.983Z,4.50
2022-10-31T06:53:24.012Z,4.25
2022-10-31T06:55:27.108Z,7.35
2022-10-31T06:57:28.852Z,5.60
2022-10-31T06:59:31.090Z,5.30
2022-10-31T07:01:51.272Z,4.88
2022-10-31T07:03:53.340Z,5.45
2022-10-31T07:05:58.460Z,4.28
2022-10-31T07:08:06.347Z,4.38
2022-10-31T07:10:09.607Z,5.22
2022-10-31T07:12:21.356Z,4.53
2022-10-31T07:14:30.840Z,5.38
2022-10-31T07:16:32.614Z,6.75
2022-10-31T07:18:35.881Z,7.07
2022-10-31T07:20:37.830Z,5.07
2022-10-31T07:22:39.465Z,5.47
2022-10-31T07:24:43.399Z,5.20
2022-10-31T07:27:22.048Z,5.90
2022-10-31T07:29:24.124Z,5.15
2022-10-31T07:31:26.587Z,6.40
2022-10-31T07:33:35.592Z,4.78
2022-10-31T07:36:06.592Z,4.88
2022-10-31T07:38:13.323Z,3.88
2022-10-31T07:40:15.742Z,4.47
2022-10-31T07:42:18.069Z,3.92
2022-10-31T07:44:20.694Z,3.97
2022-10-31T07:46:51.755Z,3.97
2022-10-31T07:49:12.006Z,3.38
2022-10-31T07:51:32.353Z,3.38
2022-10-31T07:53:58.055Z,3.78
2022-10-31T07:56:03.629Z,3.47
2022-10-31T07:58:09.957Z,3.17
2022-10-31T08:00:14.347Z,3.95
2022-10-31T08:02:18.894Z,3.40
2022-10-31T08:04:23.312Z,3.63
2022-10-31T08:06:43.538Z,3.00
2022-10-31T08:09:00.553Z,3.47
2022-10-31T08:11:03.492Z,3.25
2022-10-31T08:13:08.900Z,3.10
2022-10-31T08:15:12.417Z,3.53
2022-10-31T08:17:14.305Z,3.72
2022-10-31T08:19:23.298Z,4.45
2022-10-31T08:21:25.157Z,3.08
2022-10-31T08:23:26.730Z,4.70
2022-10-31T08:25:37.194Z,3.40
2022-10-31T08:27:40.564Z,3.58
2022-10-31T08:29:48.174Z,3.10
2022-10-31T08:31:52.339Z,3.10
2022-10-31T08:34:13.071Z,3.67
2022-10-31T08:36:37.478Z,3.28
2022-10-31T08:38:49.272Z,3.30
2022-10-31T08:40:52.083Z,3.22
2022-10-31T08:43:14.390Z,3.08
2022-10-31T08:45:18.493Z,3.75
2022-10-31T08:47:21.105Z,3.88
2022-10-31T08:49:23.415Z,3.53
2022-10-31T08:51:26.521Z,4.60
2022-10-31T08:53:30.590Z,4.10
2022-10-31T08:56:04.699Z,5.57
2022-10-31T08:58:09.937Z,4.82
2022-10-31T09:00:21.265Z,5.78
2022-10-31T09:02:34.990Z,6.20
2022-10-31T09:04:37.416Z,6.72
2022-10-31T09:06:46.387Z,6.00
2022-10-31T09:08:57.763Z,6.38
2022-10-31T09:11:02.474Z,8.25
2022-10-31T09:13:27.329Z,7.97
2022-10-31T09:15:51.362Z,7.72
2022-10-31T09:17:57.865Z,8.65
2022-10-31T09:20:26.239Z,8.93
2022-10-31T09:22:29.366Z,9.38
2022-10-31T09:24:31.159Z,10.43
2022-10-31T09:26:36.753Z,9.93
2022-10-31T09:29:04.810Z,10.18
2022-10-31T09:31:15.315Z,10.02
2022-10-31T09:33:23.068Z,10.65
2022-10-31T09:35:41.897Z,10.88
2022-10-31T09:37:43.613Z,11.38
2022-10-31T09:39:46.554Z,10.95
2022-10-31T09:42:23.826Z,11.77
2022-10-31T09:44:36.259Z,12.50
2022-10-31T09:46:55.244Z,10.40
2022-10-31T09:49:24.334Z,11.25
2022-10-31T09:51:32.022Z,10.85
2022-10-31T09:53:54.396Z,10.70
2022-10-31T09:55:59.739Z,9.90
2022-10-31T09:58:05.428Z,11.18
2022-10-31T10:00:12.308Z,11.50
2022-10-31T10:02:29.150Z,13.13
2022-10-31T10:05:08.943Z,13.23
2022-10-31T10:07:39.988Z,12.57
2022-10-31T10:10:53.145Z,11.25
2022-10-31T10:13:34.363Z,11.60
2022-10-31T10:15:51.604Z,11.52
2022-10-31T10:18:09.812Z,12.10
2022-10-31T10:20:34.175Z,11.32
2022-10-31T10:23:09.978Z,9.85
2022-10-31T10:25:11.679Z,10.32
2022-10-31T10:27:42.653Z,9.27
2022-10-31T10:29:53.124Z,9.35
2022-10-31T10:31:58.129Z,8.55
2022-10-31T10:34:07.753Z,10.80
2022-10-31T10:36:22.621Z,9.88
2022-10-31T10:38:46.368Z,7.72
2022-10-31T10:40:48.315Z,7.22
2022-10-31T10:43:21.860Z,8.85
2022-10-31T10:45:41.883Z,7.22
2022-10-31T10:47:46.614Z,6.47
2022-10-31T10:49:52.834Z,6.60
2022-10-31T10:55:16.256Z,7.65
2022-10-31T10:57:35.086Z,6.03
2022-10-31T10:59:36.944Z,5.85
2022-10-31T11:01:41.569Z,7.10
2022-10-31T11:03:45.982Z,5.75
2022-10-31T11:06:01.560Z,7.00
2022-10-31T11:08:04.550Z,7.72
2022-10-31T11:10:13.987Z,8.02
2022-10-31T11:12:30.370Z,7.95
2022-10-31T11:14:32.726Z,8.70
2022-10-31T11:16:41.043Z,8.85
2022-10-31T11:18:48.080Z,11.23
2022-10-31T11:20:56.053Z,9.90
2022-10-31T11:23:18.778Z,12.05
2022-10-31T11:25:20.545Z,11.68
2022-10-31T11:27:24.349Z,10.60
2022-10-31T11:29:28.663Z,11.10
2022-10-31T11:31:31.343Z,11.00
2022-10-31T11:33:35.466Z,10.20
2022-10-31T11:35:40.966Z,13.13
2022-10-31T11:37:49.181Z,10.65
2022-10-31T11:39:54.707Z,10.55
2022-10-31T11:42:06.241Z,10.50
2022-10-31T11:44:22.696Z,10.95
2022-10-31T11:46:35.634Z,11.77
2022-10-31T11:48:37.855Z,11.73
2022-10-31T11:50:42.337Z,11.35
2022-10-31T11:52:44.490Z,10.27
2022-10-31T11:54:56.633Z,10.80
2022-10-31T11:56:59.933Z,10.57
2022-10-31T11:59:08.638Z,11.02
2022-10-31T12:01:29.252Z,10.90
2022-10-31T12:03:58.704Z,8.18
2022-10-31T12:06:08.181Z,8.13
2022-10-31T12:08:13.851Z,8.13
2022-10-31T12:10:17.237Z,8.57
2022-10-31T12:12:53.660Z,8.30
2022-10-31T12:15:02.189Z,8.90
2022-10-31T12:17:21.019Z,8.55
2022-10-31T12:19:44.489Z,7.57
2022-10-31T12:21:59.757Z,7.10
2022-10-31T12:24:29.506Z,8.35
2022-10-31T12:27:23.550Z,7.00
2022-10-31T12:29:49.698Z,5.93
2022-10-31T12:32:30.461Z,6.43
2022-10-31T12:34:46.174Z,8.50
2022-10-31T12:37:17.265Z,6.05
2022-10-31T12:39:50.452Z,5.57
2022-10-31T12:41:53.504Z,5.40
2022-10-31T12:44:17.460Z,5.28
2022-10-31T12:46:26.495Z,6.22
2022-10-31T12:48:57.502Z,5.63
2022-10-31T12:51:24.461Z,5.10
2022-10-31T12:53:44.758Z,5.80
2022-10-31T12:56:05.568Z,5.60
2022-10-31T12:58:30.175Z,6.18
2022-10-31T13:00:38.746Z,7.18
2022-10-31T13:02:49.557Z,6.85
2022-10-31T13:05:01.425Z,7.03
2022-10-31T13:07:09.860Z,6.55
2022-10-31T13:09:21.880Z,5.60
2022-10-31T13:11:36.224Z,5.13
2022-10-31T13:13:48.196Z,6.20
2022-10-31T13:15:58.076Z,5.30
2022-10-31T13:18:13.424Z,5.43
2022-10-31T13:20:23.285Z,5.07
2022-10-31T13:22:31.638Z,5.90
2022-10-31T13:24:39.783Z,5.93
2022-10-31T13:26:52.999Z,6.43
2022-10-31T13:29:10.668Z,6.22
2022-10-31T13:31:12.413Z,5.78
2022-10-31T13:33:22.485Z,5.30
2022-10-31T13:35:34.927Z,5.05
2022-10-31T13:37:42.167Z,5.70
2022-10-31T13:40:06.388Z,6.30
2022-10-31T13:42:24.499Z,5.38
2022-10-31T13:44:31.277Z,6.03
2022-10-31T13:46:38.006Z,5.57
2022-10-31T13:48:42.535Z,6.32
2022-10-31T13:50:56.194Z,5.50
2022-10-31T13:53:32.966Z,5.65
2022-10-31T13:55:46.532Z,5.55
2022-10-31T13:57:50.818Z,5.90
2022-10-31T13:59:59.037Z,5.28
2022-10-31T14:02:03.739Z,5.97
2022-10-31T14:04:34.012Z,5.35
2022-10-31T14:06:48.465Z,5.93
2022-10-31T14:08:53.389Z,5.10
2022-10-31T14:10:56.883Z,5.90
2022-10-31T14:13:26.758Z,7.43
2022-10-31T14:15:29.526Z,10.30
2022-10-31T14:17:40.083Z,5.85
2022-10-31T14:19:41.816Z,7.97
2022-10-31T14:21:48.417Z,6.63
2022-10-31T14:23:54.017Z,6.63
2022-10-31T14:26:22.220Z,7.05
2022-10-31T14:28:36.205Z,6.15
2022-10-31T14:30:39.829Z,6.05
2022-10-31T14:32:44.075Z,6.38
2022-10-31T14:34:53.803Z,5.90
2022-10-31T14:37:06.260Z,5.95
2022-10-31T14:39:26.431Z,8.73
2022-10-31T14:41:51.097Z,6.20
2022-10-31T14:44:26.865Z,7.35
2022-10-31T14:47:01.581Z,6.78
2022-10-31T14:49:32.651Z,6.28
2022-10-31T14:51:49.843Z,7.22
2022-10-31T14:53:55.548Z,6.82
2022-10-31T14:56:06.661Z,6.85
2022-10-31T14:58:09.252Z,7.05
2022-10-31T15:00:45.783Z,7.00
2022-10-31T15:03:15.857Z,7.72
2022-10-31T15:05:18.519Z,8.57
2022-10-31T15:07:27.535Z,7.30
2022-10-31T15:09:32.552Z,6.97
2022-10-31T15:11:39.215Z,7.18
2022-10-31T15:13:54.199Z,6.35
2022-10-31T15:15:56.927Z,6.40
2022-10-31T15:18:04.840Z,6.82
2022-10-31T15:20:12.928Z,7.20
2022-10-31T15:22:20.115Z,7.90
2022-10-31T15:24:25.547Z,8.02
2022-10-31T15:26:33.282Z,6.97
2022-10-31T15:28:35.209Z,6.57
2022-10-31T15:30:36.648Z,7.95
2022-10-31T15:32:55.281Z,6.93
2022-10-31T15:34:59.984Z,9.85
2022-10-31T15:37:01.724Z,9.40
2022-10-31T15:39:03.460Z,6.60
2022-10-31T15:41:21.591Z,7.15
2022-10-31T15:43:23.982Z,8.38
2022-10-31T15:45:28.611Z,6.05
2022-10-31T15:47:33.200Z,5.57
2022-10-31T15:49:54.084Z,5.78
2022-10-31T15:54:04.232Z,6.20
2022-10-31T15:56:08.772Z,7.25
2022-10-31T15:58:15.576Z,7.07
2022-10-31T16:00:39.271Z,6.35
2022-10-31T16:02:41.235Z,6.10
2022-10-31T16:04:58.753Z,8.07
2022-10-31T16:07:18.749Z,6.40
2022-10-31T16:09:25.215Z,5.65
2022-10-31T16:11:37.882Z,5.93
2022-10-31T16:13:52.938Z,5.60
2022-10-31T16:18:42.057Z,8.10
2022-10-31T16:20:53.628Z,7.57
2022-10-31T16:22:58.873Z,7.82
2022-10-31T16:25:09.898Z,8.32
2022-10-31T16:27:26.597Z,9.18
2022-10-31T16:29:34.643Z,7.50
2022-10-31T16:31:41.684Z,6.78
2022-10-31T16:33:44.415Z,7.82
2022-10-31T16:35:48.230Z,6.78
2022-10-31T16:37:50.055Z,6.53
2022-10-31T16:39:51.912Z,7.93
2022-10-31T16:41:56.931Z,9.43
2022-10-31T16:44:01.228Z,7.30
2022-10-31T16:46:05.219Z,7.72
2022-10-31T16:48:12.888Z,7.53
2022-10-31T16:50:22.877Z,7.13
2022-10-31T16:52:24.938Z,6.32
2022-10-31T16:54:26.403Z,6.43
2022-10-31T16:56:33.986Z,9.55
2022-10-31T16:58:36.739Z,7.55
2022-10-31T17:00:44.454Z,7.65
2022-10-31T17:02:47.806Z,7.32
2022-10-31T17:04:53.719Z,6.78
2022-10-31T17:07:09.959Z,9.48
2022-10-31T17:09:21.994Z,7.35
2022-10-31T17:11:27.042Z,6.57
2022-10-31T17:13:31.726Z,7.40
2022-10-31T17:15:44.636Z,9.38
2022-10-31T17:17:46.511Z,8.18
2022-10-31T17:19:48.204Z,7.68
2022-10-31T17:21:49.959Z,8.73
2022-10-31T17:23:51.754Z,11.73
2022-10-31T17:25:56.852Z,8.55
2022-10-31T17:27:59.456Z,8.32
2022-10-31T17:30:03.561Z,10.23
2022-10-31T17:32:05.630Z,9.20
2022-10-31T17:34:08.581Z,10.32
2022-10-31T17:36:10.159Z,7.90
2022-10-31T17:38:13.724Z,8.07
2022-10-31T17:40:18.869Z,8.68
2022-10-31T17:42:21.989Z,7.65
2022-10-31T17:44:23.545Z,7.88
2022-10-31T17:46:30.948Z,7.43
2022-10-31T17:48:51.767Z,7.53
2022-10-31T17:51:05.254Z,8.05
2022-10-31T17:53:07.160Z,8.90
2022-10-31T17:55:09.768Z,6.70
2022-10-31T17:58:11.808Z,5.70
2022-10-31T18:00:18.313Z,5.32
2022-10-31T18:02:20.241Z,5.55
2022-10-31T18:04:22.020Z,5.32
2022-10-31T18:06:23.515Z,6.55
2022-10-31T18:08:32.313Z,7.18
2022-10-31T18:10:50.434Z,6.38
2022-10-31T18:12:51.998Z,10.45
2022-10-31T18:14:53.949Z,13.57
2022-10-31T18:16:57.015Z,16.38
2022-10-31T18:19:27.372Z,18.77
2022-10-31T18:21:32.651Z,21.65
2022-10-31T18:23:34.547Z,26.27
2022-10-31T18:25:44.390Z,31.65
2022-10-31T18:27:46.956Z,36.00
2022-10-31T18:30:19.393Z,33.22
2022-10-31T18:32:58.225Z,32.50
2022-10-31T18:35:39.096Z,33.13
2022-10-31T18:40:29.371Z,34.25
2022-10-31T18:42:31.360Z,27.50
2022-10-31T18:44:36.104Z,32.15
2022-10-31T18:46:59.053Z,29.40
2022-10-31T18:51:33.659Z,28.73
2022-10-31T18:53:35.679Z,30.88
2022-10-31T18:55:44.122Z,35.15
2022-10-31T18:57:49.064Z,39.38
2022-10-31T18:59:50.941Z,35.75
2022-10-31T19:01:52.805Z,33.92
2022-10-31T19:03:56.328Z,31.98
2022-10-31T19:06:10.291Z,30.25
2022-10-31T19:08:38.563Z,27.33
2022-10-31T19:20:09.657Z,19.35
2022-10-31T19:22:11.499Z,20.42
2022-10-31T19:24:21.159Z,24.52
2022-10-31T19:26:54.756Z,28.02
2022-10-31T19:29:06.786Z,24.40
2022-10-31T19:31:09.726Z,24.52
2022-10-31T19:33:11.522Z,26.02
2022-10-31T19:35:13.750Z,28.38
2022-10-31T19:37:17.079Z,20.73
2022-10-31T19:39:18.700Z,16.67
2022-10-31T19:41:23.573Z,15.65
2022-10-31T19:43:25.616Z,15.02
2022-10-31T19:45:27.305Z,10.48
2022-10-31T19:47:29.016Z,9.98
2022-10-31T19:49:32.022Z,9.63
2022-10-31T19:51:33.657Z,8.85
2022-10-31T19:53:40.148Z,8.90
2022-10-31T19:55:42.845Z,10.20
2022-10-31T20:00:07.353Z,15.05
2022-10-31T20:02:19.826Z,15.23
2022-10-31T20:04:21.789Z,15.50
2022-10-31T20:06:26.786Z,15.73
2022-10-31T20:08:28.903Z,16.20
2022-10-31T20:10:30.464Z,18.25
2022-10-31T20:12:33.944Z,19.95
2022-10-31T20:14:35.973Z,22.52
2022-10-31T20:16:37.597Z,25.38
2022-10-31T20:18:39.682Z,24.08
2022-10-31T20:20:41.876Z,23.38
2022-10-31T20:22:43.615Z,18.45
2022-10-31T20:24:47.620Z,19.73
2022-10-31T20:26:49.342Z,16.67
2022-10-31T20:28:51.546Z,16.70
2022-10-31T20:30:53.561Z,16.60
2022-10-31T20:32:55.184Z,17.83
2022-10-31T20:34:57.628Z,14.93
2022-10-31T20:36:59.310Z,13.02
2022-10-31T20:39:01.159Z,12.57
2022-10-31T20:41:04.990Z,12.15
2022-10-31T20:43:06.631Z,11.07
2022-10-31T20:45:08.731Z,11.40
2022-10-31T20:47:10.408Z,11.07
2022-10-31T20:49:18.298Z,12.18
2022-10-31T20:51:28.195Z,10.98
2022-10-31T20:53:30.419Z,10.70
2022-10-31T20:55:34.740Z,10.45
2022-10-31T20:57:36.471Z,10.55
2022-10-31T20:59:38.226Z,13.32
2022-10-31T21:01:41.295Z,13.98
2022-10-31T21:03:43.955Z,16.90
2022-10-31T21:06:01.547Z,17.55
2022-10-31T21:08:03.267Z,16.27
2022-10-31T21:10:15.027Z,15.93
2022-10-31T21:12:16.923Z,16.23
2022-10-31T21:14:18.632Z,15.52
2022-10-31T21:16:23.954Z,15.43
2022-10-31T21:18:25.609Z,15.50
2022-10-31T21:20:27.375Z,14.05
2022-10-31T21:22:28.920Z,13.68
2022-10-31T21:24:30.643Z,14.13
2022-10-31T21:26:36.347Z,13.10
2022-10-31T21:28:41.044Z,13.13
2022-10-31T21:30:47.975Z,13.23
2022-10-31T21:32:55.541Z,12.90
2022-10-31T21:34:59.521Z,12.38
2022-10-31T21:37:07.154Z,11.80
2022-10-31T21:39:10.288Z,13.75
2022-10-31T21:41:17.208Z,11.55
2022-10-31T21:43:18.840Z,12.20
2022-10-31T21:45:21.025Z,12.27
2022-10-31T21:47:22.508Z,10.75
2022-10-31T21:49:24.290Z,11.30
2022-10-31T21:51:28.905Z,10.40
2022-10-31T21:53:55.902Z,10.68
2022-10-31T21:56:02.881Z,10.00
2022-10-31T21:58:04.710Z,10.38
2022-10-31T22:00:19.573Z,10.10
2022-10-31T22:02:21.173Z,11.48
2022-10-31T22:04:23.016Z,11.70
2022-10-31T22:06:26.648Z,11.20
2022-10-31T22:08:28.888Z,10.80
2022-10-31T22:10:32.515Z,11.13
2022-10-31T22:12:34.299Z,10.50
2022-10-31T22:14:35.968Z,11.20
2022-10-31T22:16:37.912Z,14.43
2022-10-31T22:18:40.733Z,31.45
2022-10-31T22:20:45.136Z,32.10
2022-10-31T22:22:48.007Z,31.58
2022-10-31T22:24:49.634Z,24.50
2022-10-31T22:26:53.862Z,21.92
2022-10-31T22:29:00.616Z,17.02
2022-10-31T22:31:06.435Z,15.27
2022-10-31T22:33:08.012Z,13.90
2022-10-31T22:35:09.660Z,12.13
2022-10-31T22:37:17.342Z,11.75
2022-10-31T22:39:21.255Z,11.40
2022-10-31T22:41:25.884Z,10.93
2022-10-31T22:43:30.271Z,10.20
2022-10-31T22:45:32.264Z,10.40
2022-10-31T22:47:35.287Z,12.95
2022-10-31T22:49:37.145Z,12.35
2022-10-31T22:51:55.970Z,12.48
2022-10-31T22:54:01.766Z,11.98
2022-10-31T22:56:05.618Z,11.90
2022-10-31T22:58:07.394Z,11.93
2022-10-31T23:00:10.041Z,11.50
2022-10-31T23:02:12.823Z,11.70
2022-10-31T23:04:16.444Z,10.57
2022-10-31T23:06:21.366Z,10.73
2022-10-31T23:08:23.364Z,11.82
2022-10-31T23:10:45.651Z,10.13
2022-10-31T23:13:19.085Z,9.30
2022-10-31T23:17:36.622Z,11.20
2022-10-31T23:19:38.237Z,12.43
2022-10-31T23:22:11.437Z,11.30
2022-10-31T23:24:13.879Z,11.57
2022-10-31T23:26:36.889Z,11.25
2022-10-31T23:28:38.903Z,10.30
2022-10-31T23:30:42.607Z,10.80
2022-10-31T23:32:44.141Z,10.85
2022-10-31T23:34:47.254Z,9.98
2022-10-31T23:36:49.286Z,10.68
2022-10-31T23:38:52.656Z,10.60
2022-10-31T23:40:54.325Z,10.32
2022-10-31T23:42:55.893Z,9.18
2022-10-31T23:44:58.220Z,9.57
2022-10-31T23:47:00.226Z,9.35
2022-10-31T23:49:01.952Z,9.45
2022-10-31T23:51:03.723Z,8.75
2022-10-31T23:53:05.399Z,9.27
2022-10-31T23:55:07.427Z,9.40
2022-10-31T23:57:11.048Z,8.63
2022-10-31T23:59:12.546Z,8.38
